Paulo Da Gama — CSMM — position and weather

sailwx.info

Track history (hours):
 
Tides and Currents Weather Stations Pressure Air Temp Water Temp Dewpoint Dewpoint Depression Visibility Wind Speed Wind Dir Waves Ship Positions

Paulo Da Gama

Last reported at 2017-Nov-18 04:26 UTC. Time now 2017-Nov-18 04:42 UTC.
Position N 38°43' W 027°03'.

Length 50 m; draft 2.8 m.

Type: Cargo ship. MMSI: 204706000.

Date/timePositionNaut miles runAvg speedWind from/ knotsBaromVisibWave heightAir tempDewpointWater temp
2017-Nov-18 04:26N 38°43' W 027°03'0 0.0
2017-Nov-18 03:55N 38°43' W 027°03'0 0.0
2017-Nov-18 03:23N 38°43' W 027°03'0 0.0
2017-Nov-18 02:12N 38°43' W 027°03'0 0.0
2017-Nov-18 01:44N 38°43' W 027°03'0 0.0
2017-Nov-18 01:22N 38°43' W 027°03'0 0.0
2017-Nov-17 17:14N 38°43' W 027°03'0 0.0
2017-Nov-17 16:57N 38°43' W 027°03'0 0.0
2017-Nov-17 16:25N 38°43' W 027°03'0 0.0
2017-Nov-17 15:56N 38°43' W 027°03'0 0.0
2017-Nov-17 15:29N 38°43' W 027°03'0 0.0
2017-Nov-17 15:00N 38°43' W 027°03'0 0.0
2017-Nov-17 14:30N 38°43' W 027°03'0 0.0
2017-Nov-17 13:58N 38°43' W 027°03'0 0.0
2017-Nov-17 13:29N 38°43' W 027°03'0 0.0
2017-Nov-17 13:00N 38°43' W 027°03'0 0.0
2017-Nov-17 12:26N 38°43' W 027°03'0 0.0
2017-Nov-17 11:56N 38°43' W 027°03'0 0.0
2017-Nov-17 11:28N 38°43' W 027°03'0 0.0
2017-Nov-17 10:52N 38°43' W 027°03'0 0.0
2017-Nov-17 10:21N 38°43' W 027°03'0 0.0
2017-Nov-17 10:00N 38°43' W 027°03'0 0.0
2017-Nov-17 09:26N 38°43' W 027°03'0 0.0
2017-Nov-17 09:00N 38°43' W 027°03'0 0.0
2017-Nov-17 08:25N 38°43' W 027°03'0 0.0
2017-Nov-17 07:43N 38°43' W 027°03'0 0.0
2017-Nov-17 07:30N 38°43' W 027°03'0 0.0
2017-Nov-17 07:00N 38°43' W 027°03'0 0.0
2017-Nov-17 06:18N 38°43' W 027°03'0 0.0
2017-Nov-17 05:58N 38°43' W 027°03'0 0.0
2017-Nov-17 05:30N 38°43' W 027°03'0 0.0
2017-Nov-17 05:00N 38°43' W 027°03'0 0.0
2017-Nov-17 04:21N 38°43' W 027°03'0 0.0
2017-Nov-17 01:42N 38°43' W 027°03'0 0.0
2017-Nov-16 16:18N 38°43' W 027°03'0 0.0
2017-Nov-16 15:59N 38°43' W 027°03'0 0.0
2017-Nov-16 15:13N 38°43' W 027°03'0 0.0
2017-Nov-16 14:59N 38°43' W 027°03'0 0.0
2017-Nov-16 14:30N 38°43' W 027°03'0 0.0
2017-Nov-16 14:00N 38°43' W 027°03'0 0.0
2017-Nov-16 13:30N 38°43' W 027°03'0 0.0
2017-Nov-16 13:00N 38°43' W 027°03'0 0.0
2017-Nov-16 12:27N 38°43' W 027°03'0 0.0
2017-Nov-15 17:13N 38°43' W 027°03'0 0.0
2017-Nov-15 16:55N 38°43' W 027°03'0 0.0
2017-Nov-15 16:30N 38°43' W 027°03'0 0.0
2017-Nov-15 16:00N 38°43' W 027°03'0 0.0
2017-Nov-15 15:30N 38°43' W 027°03'0 0.0
2017-Nov-15 15:00N 38°43' W 027°03'0 0.0
2017-Nov-15 14:30N 38°43' W 027°03'0 0.0
2017-Nov-15 14:01N 38°43' W 027°03'0 0.0
2017-Nov-15 13:30N 38°43' W 027°03'0 0.0
2017-Nov-15 13:01N 38°43' W 027°03'0 0.0
2017-Nov-15 12:30N 38°43' W 027°03'0 0.0
2017-Nov-15 12:00N 38°43' W 027°03'0 0.0
2017-Nov-15 11:30N 38°43' W 027°03'0 0.0
2017-Nov-15 11:00N 38°43' W 027°03'0 0.0
2017-Nov-15 10:29N 38°43' W 027°03'0 0.0
2017-Nov-15 10:00N 38°43' W 027°03'0 0.0
2017-Nov-15 09:30N 38°43' W 027°03'0 0.0
2017-Nov-15 08:59N 38°43' W 027°03'0 0.0
2017-Nov-15 08:30N 38°43' W 027°03'0 0.0
2017-Nov-15 07:59N 38°43' W 027°03'0 0.0
2017-Nov-15 07:30N 38°43' W 027°03'0 0.0
2017-Nov-15 07:00N 38°43' W 027°03'0 0.0
2017-Nov-15 06:30N 38°43' W 027°03'7 0.9
2017-Nov-14 22:41N 38°36' W 027°05'2 7.5
2017-Nov-14 22:28N 38°35' W 027°07'4 8.0
2017-Nov-14 22:00N 38°35' W 027°11'4 7.9
2017-Nov-14 21:30N 38°34' W 027°16'4 8.1
2017-Nov-14 20:59N 38°33' W 027°22'4 8.5
2017-Nov-14 20:30N 38°33' W 027°27'4 8.3
2017-Nov-14 20:00N 38°32' W 027°32'4 8.4
2017-Nov-14 19:30N 38°31' W 027°37'4 8.3
2017-Nov-14 19:00N 38°30' W 027°43'4 8.1
2017-Nov-14 18:30N 38°30' W 027°48'4 7.8
2017-Nov-14 18:00N 38°31' W 027°53'4 7.8
2017-Nov-14 17:30N 38°32' W 027°57'4 7.9
2017-Nov-14 17:01N 38°33' W 028°02'4 8.2
2017-Nov-14 16:31N 38°35' W 028°07'4 8.1
2017-Nov-14 16:00N 38°38' W 028°11'3 6.6
2017-Nov-14 15:30N 38°41' W 028°12'0 0.0
2017-Nov-14 15:00N 38°41' W 028°12'0 0.0
2017-Nov-14 14:30N 38°41' W 028°12'0 0.0
2017-Nov-14 14:00N 38°41' W 028°12'0 0.0
2017-Nov-14 13:30N 38°41' W 028°12'0 0.0
2017-Nov-14 13:00N 38°41' W 028°12'0 0.0
2017-Nov-14 12:30N 38°41' W 028°12'0 0.0
2017-Nov-14 12:00N 38°41' W 028°12'0 0.0
2017-Nov-14 11:30N 38°41' W 028°12'0 0.0
2017-Nov-14 11:00N 38°41' W 028°12'0 0.0
2017-Nov-14 10:30N 38°41' W 028°12'0 0.0
2017-Nov-14 10:00N 38°41' W 028°12'0 0.0
2017-Nov-14 09:30N 38°41' W 028°12'0 0.0
2017-Nov-14 09:00N 38°41' W 028°12'0 0.0
2017-Nov-14 08:30N 38°41' W 028°12'0 0.9
2017-Nov-14 08:00N 38°40' W 028°12'4 8.8
2017-Nov-14 07:30N 38°37' W 028°08'5 9.6
2017-Nov-14 07:00N 38°35' W 028°03'5 9.5
2017-Nov-14 06:31N 38°33' W 027°57'5 9.3
2017-Nov-14 06:00N 38°31' W 027°52'4 8.7
2017-Nov-14 05:30N 38°31' W 027°47'4 8.7
2017-Nov-14 05:00N 38°32' W 027°41'4 8.6
2017-Nov-14 04:30N 38°32' W 027°36'4 8.6
2017-Nov-14 04:00N 38°33' W 027°30'5 9.0
2017-Nov-14 03:30N 38°34' W 027°25'5 9.5
2017-Nov-14 02:58N 38°35' W 027°18'4 9.4
2017-Nov-14 02:30N 38°36' W 027°13'11 7.0
2017-Nov-14 00:57N 38°42' W 027°01'2 0.1
2017-Nov-13 02:00N 38°43' W 027°03'0 0.0
2017-Nov-13 01:30N 38°43' W 027°03'0 0.0
2017-Nov-13 00:58N 38°43' W 027°03'0 0.0
2017-Nov-13 00:25N 38°43' W 027°03'0 0.0
2017-Nov-12 23:59N 38°43' W 027°03'0 0.0
2017-Nov-12 23:21N 38°43' W 027°03'0 0.0
2017-Nov-12 22:59N 38°43' W 027°03'0 0.0
2017-Nov-12 22:30N 38°43' W 027°03'0 0.0
2017-Nov-12 21:55N 38°43' W 027°03'0 0.0
2017-Nov-12 21:29N 38°43' W 027°03'0 0.0
2017-Nov-12 20:59N 38°43' W 027°03'0 0.0
2017-Nov-12 20:19N 38°43' W 027°03'0 0.0
2017-Nov-12 20:01N 38°43' W 027°03'0 0.0
2017-Nov-12 19:29N 38°43' W 027°03'0 0.0
2017-Nov-12 19:00N 38°43' W 027°03'0 0.0
2017-Nov-12 18:30N 38°43' W 027°03'0 0.0
2017-Nov-12 18:00N 38°43' W 027°03'0 0.0
2017-Nov-12 17:30N 38°43' W 027°03'0 0.0
2017-Nov-12 17:00N 38°43' W 027°03'0 0.0
2017-Nov-12 16:30N 38°43' W 027°03'0 0.0
2017-Nov-12 15:59N 38°43' W 027°03'0 0.0
2017-Nov-12 15:30N 38°43' W 027°03'0 0.0
2017-Nov-12 15:00N 38°43' W 027°03'0 0.0
2017-Nov-12 13:29N 38°43' W 027°03'0 0.0
2017-Nov-12 12:58N 38°43' W 027°03'0 0.0
2017-Nov-12 12:30N 38°43' W 027°03'0 0.0
2017-Nov-12 11:32N 38°43' W 027°03'0 0.0
2017-Nov-12 11:30N 38°43' W 027°03'0 0.0
2017-Nov-12 10:57N 38°43' W 027°03'0 0.0
2017-Nov-12 08:57N 38°43' W 027°03'0 0.0
2017-Nov-12 07:52N 38°43' W 027°03'0 0.0
2017-Nov-12 07:30N 38°43' W 027°03'0 0.0
2017-Nov-12 06:58N 38°43' W 027°03'0 0.0
2017-Nov-12 06:30N 38°43' W 027°03'0 0.0
2017-Nov-12 05:33N 38°43' W 027°03'0 0.0
2017-Nov-12 05:30N 38°43' W 027°03'0 0.0
2017-Nov-12 04:06N 38°43' W 027°03'0 0.0
2017-Nov-12 03:56N 38°43' W 027°03'0 0.0
2017-Nov-12 03:30N 38°43' W 027°03'0 0.0
2017-Nov-12 01:35N 38°43' W 027°03'0 0.1
2017-Nov-12 01:30N 38°43' W 027°03'0 0.0
2017-Nov-12 00:51N 38°43' W 027°03'0 0.0
2017-Nov-12 00:29N 38°43' W 027°03'0 0.0
2017-Nov-11 23:55N 38°43' W 027°03'0 0.0
2017-Nov-11 23:22N 38°43' W 027°03'0 0.0
2017-Nov-11 22:54N 38°43' W 027°03'0 0.0
2017-Nov-11 22:20N 38°43' W 027°03'0 0.0
2017-Nov-11 22:00N 38°43' W 027°03'0 0.0
2017-Nov-11 21:30N 38°43' W 027°03'0 0.0
2017-Nov-11 20:51N 38°43' W 027°03'0 0.0
2017-Nov-11 20:21N 38°43' W 027°03'0 0.0
2017-Nov-11 20:00N 38°43' W 027°03'0 0.0
2017-Nov-11 19:15N 38°43' W 027°03'0 0.0
2017-Nov-11 18:46N 38°43' W 027°03'0 0.0
2017-Nov-11 18:05N 38°43' W 027°03'0 0.0
2017-Nov-11 17:49N 38°43' W 027°03'0 0.0
2017-Nov-11 17:28N 38°43' W 027°03'0 0.0
2017-Nov-11 16:46N 38°43' W 027°03'0 0.0
2017-Nov-11 16:26N 38°43' W 027°03'0 0.0
2017-Nov-11 15:49N 38°43' W 027°03'0 0.0
2017-Nov-11 15:30N 38°43' W 027°03'0 0.0
2017-Nov-11 15:00N 38°43' W 027°03'0 0.0
2017-Nov-11 14:30N 38°43' W 027°03'0 0.0
2017-Nov-11 14:00N 38°43' W 027°03'0 0.0
2017-Nov-11 13:29N 38°43' W 027°03'0 0.0
2017-Nov-11 13:00N 38°43' W 027°03'0 0.0
2017-Nov-11 12:30N 38°43' W 027°03'0 0.0
2017-Nov-11 12:00N 38°43' W 027°03'0 0.0
2017-Nov-11 11:30N 38°43' W 027°03'0 0.0
2017-Nov-11 10:58N 38°43' W 027°03'0 0.0
2017-Nov-11 10:04N 38°43' W 027°03'0 0.0
2017-Nov-11 10:00N 38°43' W 027°03'0 0.0
2017-Nov-11 09:28N 38°43' W 027°03'0 0.0
2017-Nov-11 08:59N 38°43' W 027°03'0 0.0
2017-Nov-11 08:30N 38°43' W 027°03'0 0.0
2017-Nov-11 07:59N 38°43' W 027°03'0 0.0
2017-Nov-11 07:30N 38°43' W 027°03'0 0.0
2017-Nov-11 07:01N 38°43' W 027°03'0 0.0
2017-Nov-11 06:01N 38°43' W 027°03'0 0.0
2017-Nov-11 05:59N 38°43' W 027°03'0 0.0
2017-Nov-11 05:21N 38°43' W 027°03'0 0.0
2017-Nov-11 04:53N 38°43' W 027°03'0 0.0
2017-Nov-11 04:29N 38°43' W 027°03'0 0.0
2017-Nov-11 04:00N 38°43' W 027°03'0 0.0
2017-Nov-11 03:30N 38°43' W 027°03'0 0.0
2017-Nov-11 03:00N 38°43' W 027°03'0 0.0
2017-Nov-11 02:30N 38°43' W 027°03'0 0.0
2017-Nov-11 02:01N 38°43' W 027°03'0 0.0
2017-Nov-11 01:30N 38°43' W 027°03'0 0.0
2017-Nov-11 01:00N 38°43' W 027°03'0 0.0
2017-Nov-11 00:30N 38°43' W 027°03'0 0.0
2017-Nov-11 00:00N 38°43' W 027°03'0 0.0
2017-Nov-10 23:30N 38°43' W 027°03'0 0.0
2017-Nov-10 22:59N 38°43' W 027°03'0 0.0
2017-Nov-10 22:30N 38°43' W 027°03'0 0.0
2017-Nov-10 21:54N 38°43' W 027°03'0 0.0
2017-Nov-10 21:24N 38°43' W 027°03'0 0.0
2017-Nov-10 20:48N 38°43' W 027°03'0 0.0
2017-Nov-10 20:23N 38°43' W 027°03'0 0.0
2017-Nov-10 19:55N 38°43' W 027°03'0 0.0
2017-Nov-10 19:20N 38°43' W 027°03'0 0.0
2017-Nov-10 18:59N 38°43' W 027°03'0 0.0
2017-Nov-10 18:30N 38°43' W 027°03'0 0.0
2017-Nov-10 18:00N 38°43' W 027°03'0 0.0
2017-Nov-10 17:30N 38°43' W 027°03'0 0.0
2017-Nov-10 16:58N 38°43' W 027°03'0 0.0
2017-Nov-10 16:30N 38°43' W 027°03'0 0.0
2017-Nov-10 15:59N 38°43' W 027°03'0 0.0
2017-Nov-10 15:31N 38°43' W 027°03'0 0.0
2017-Nov-10 15:00N 38°43' W 027°03'0 0.0
2017-Nov-10 14:30N 38°43' W 027°03'0 0.0
2017-Nov-10 14:00N 38°43' W 027°03'0 0.0
2017-Nov-10 13:30N 38°43' W 027°03'0 0.0
2017-Nov-10 13:00N 38°43' W 027°03'0 0.0
2017-Nov-10 12:30N 38°43' W 027°03'0 0.0
2017-Nov-10 12:00N 38°43' W 027°03'0 0.0
2017-Nov-10 11:30N 38°43' W 027°03'0 0.0
2017-Nov-10 11:00N 38°43' W 027°03'0 0.0
2017-Nov-10 10:30N 38°43' W 027°03'0 0.0
2017-Nov-10 10:00N 38°43' W 027°03'0 0.0
2017-Nov-10 09:30N 38°43' W 027°03'0 0.0
2017-Nov-10 09:00N 38°43' W 027°03'0 0.0
2017-Nov-10 08:30N 38°43' W 027°03'0 0.0
2017-Nov-10 08:01N 38°43' W 027°03'0 0.0
2017-Nov-10 07:29N 38°43' W 027°03'0 0.0
2017-Nov-10 06:55N 38°43' W 027°03'0 0.0
2017-Nov-10 06:30N 38°43' W 027°03'0 0.0
2017-Nov-10 05:58N 38°43' W 027°03'0 0.0
2017-Nov-10 05:27N 38°43' W 027°03'0 0.0
2017-Nov-10 05:00N 38°43' W 027°03'0 0.0
2017-Nov-10 04:29N 38°43' W 027°03'0 0.0
2017-Nov-10 04:00N 38°43' W 027°03'0 0.0
2017-Nov-10 03:29N 38°43' W 027°03'0 0.0
2017-Nov-10 03:01N 38°43' W 027°03'0 0.0
2017-Nov-10 02:30N 38°43' W 027°03'0 0.0
2017-Nov-10 01:59N 38°43' W 027°03'0 0.0
2017-Nov-10 01:31N 38°43' W 027°03'0 0.0
2017-Nov-10 01:00N 38°43' W 027°03'0 0.0
2017-Nov-10 00:24N 38°43' W 027°03'0 0.0
2017-Nov-09 23:58N 38°43' W 027°03'0 0.0
2017-Nov-09 23:29N 38°43' W 027°03'0 0.0
2017-Nov-09 22:59N 38°43' W 027°03'0 0.0
2017-Nov-09 22:20N 38°43' W 027°03'0 0.0
2017-Nov-09 22:00N 38°43' W 027°03'0 0.0
2017-Nov-09 21:28N 38°43' W 027°03'0 0.0
2017-Nov-09 20:30N 38°43' W 027°03'0 0.0
2017-Nov-09 19:54N 38°43' W 027°03'0 0.0
2017-Nov-09 19:27N 38°43' W 027°03'0 0.0
2017-Nov-09 19:00N 38°43' W 027°03'0 0.0
2017-Nov-09 18:30N 38°43' W 027°03'0 0.0
2017-Nov-09 18:00N 38°43' W 027°03'0 0.0
2017-Nov-09 17:30N 38°43' W 027°03'0 0.0
2017-Nov-09 17:00N 38°43' W 027°03'0 0.0
2017-Nov-09 16:30N 38°43' W 027°03'0 0.0
2017-Nov-09 16:00N 38°43' W 027°03'0 0.0
2017-Nov-09 15:31N 38°43' W 027°03'0 0.0
2017-Nov-09 15:00N 38°43' W 027°03'0 0.0
2017-Nov-09 14:30N 38°43' W 027°03'0 0.0
2017-Nov-09 14:00N 38°43' W 027°03'0 0.0
2017-Nov-09 13:30N 38°43' W 027°03'0 0.0
2017-Nov-09 12:59N 38°43' W 027°03'0 0.0
2017-Nov-09 12:30N 38°43' W 027°03'0 0.0
2017-Nov-09 12:00N 38°43' W 027°03'0 0.0
2017-Nov-09 11:30N 38°43' W 027°03'0 0.0
2017-Nov-09 11:00N 38°43' W 027°03'0 0.0
2017-Nov-09 10:28N 38°43' W 027°03'0 0.0
2017-Nov-09 10:00N 38°43' W 027°03'0 0.0
2017-Nov-09 09:31N 38°43' W 027°03'0 0.0
2017-Nov-09 09:00N 38°43' W 027°03'0 0.0
2017-Nov-09 08:30N 38°43' W 027°03'0 0.0
2017-Nov-09 07:59N 38°43' W 027°03'0 0.0
2017-Nov-09 07:30N 38°43' W 027°03'0 0.0
2017-Nov-09 07:00N 38°43' W 027°03'0 0.0
2017-Nov-09 06:26N 38°43' W 027°03'0 0.0
2017-Nov-09 05:59N 38°43' W 027°03'0 0.0
2017-Nov-09 05:22N 38°43' W 027°03'0 0.0
2017-Nov-09 05:00N 38°43' W 027°03'0 0.0
2017-Nov-09 04:29N 38°43' W 027°03'0 0.0
2017-Nov-09 04:00N 38°43' W 027°03'0 0.0
2017-Nov-09 03:30N 38°43' W 027°03'0 0.0
2017-Nov-09 02:59N 38°43' W 027°03'0 0.0
2017-Nov-09 02:30N 38°43' W 027°03'0 0.0
2017-Nov-09 02:00N 38°43' W 027°03'0 0.0
2017-Nov-09 01:30N 38°43' W 027°03'0 0.0
2017-Nov-09 01:01N 38°43' W 027°03'0 0.0
2017-Nov-09 00:30N 38°43' W 027°03'0 0.0
2017-Nov-09 00:00N 38°43' W 027°03'0 0.0
2017-Nov-08 23:30N 38°43' W 027°03'0 0.0
2017-Nov-08 23:00N 38°43' W 027°03'0 0.0
2017-Nov-08 22:29N 38°43' W 027°03'0 0.0
2017-Nov-08 22:00N 38°43' W 027°03'0 0.0
2017-Nov-08 21:30N 38°43' W 027°03'0 0.0
2017-Nov-08 21:00N 38°43' W 027°03'0 0.0
2017-Nov-08 20:30N 38°43' W 027°03'0 0.0
2017-Nov-08 20:00N 38°43' W 027°03'0 0.0
2017-Nov-08 19:30N 38°43' W 027°03'0 0.0
2017-Nov-08 19:00N 38°43' W 027°03'0 0.0
2017-Nov-08 18:30N 38°43' W 027°03'0 0.0
2017-Nov-08 18:00N 38°43' W 027°03'0 0.0
2017-Nov-08 17:30N 38°43' W 027°03'0 0.0
2017-Nov-08 17:00N 38°43' W 027°03'0 0.0
2017-Nov-08 16:30N 38°43' W 027°03'0 0.0
2017-Nov-08 16:00N 38°43' W 027°03'0 0.0
2017-Nov-08 15:31N 38°43' W 027°03'0 0.0
2017-Nov-08 15:00N 38°43' W 027°03'0 0.0
2017-Nov-08 14:30N 38°43' W 027°03'0 0.0
2017-Nov-08 14:00N 38°43' W 027°03'0 0.0
2017-Nov-08 13:31N 38°43' W 027°03'0 0.0
2017-Nov-08 13:00N 38°43' W 027°03'0 0.0
2017-Nov-08 12:30N 38°43' W 027°03'0 0.0
2017-Nov-08 12:00N 38°43' W 027°03'0 0.0
2017-Nov-08 11:30N 38°43' W 027°03'0 0.0
2017-Nov-08 11:00N 38°43' W 027°03'0 0.0
2017-Nov-08 10:30N 38°43' W 027°03'0 0.0
2017-Nov-08 10:00N 38°43' W 027°03'0 0.0
2017-Nov-08 09:30N 38°43' W 027°03'0 0.0
2017-Nov-08 09:00N 38°43' W 027°03'0 0.0
2017-Nov-08 08:30N 38°43' W 027°03'0 0.0
2017-Nov-08 08:01N 38°43' W 027°03'0 0.0
2017-Nov-08 07:31N 38°43' W 027°03'0 0.0
2017-Nov-08 06:59N 38°43' W 027°03'0 0.0
2017-Nov-08 06:30N 38°43' W 027°03'0 0.0
2017-Nov-08 06:01N 38°43' W 027°03'0 0.0
2017-Nov-08 05:30N 38°43' W 027°03'0 0.0
2017-Nov-08 05:00N 38°43' W 027°03'0 0.0
2017-Nov-08 04:30N 38°43' W 027°03'  
Track history (hours):
 
Tides and Currents Weather Stations Pressure Air Temp Water Temp Dewpoint Dewpoint Depression Visibility Wind Speed Wind Dir Waves Ship Positions

Paulo Da Gama

Last reported at 2017-Nov-18 04:26 UTC. Time now 2017-Nov-18 04:42 UTC.
Position N 38°43' W 027°03'.

Length 50 m; draft 2.8 m.

Type: Cargo ship. MMSI: 204706000.

Date/timePositionNaut miles runAvg speedWind from/ knotsBaromVisibWave heightAir tempDewpointWater temp
2017-Nov-18 04:26N 38°43' W 027°03'0 0.0
2017-Nov-18 03:55N 38°43' W 027°03'0 0.0
2017-Nov-18 03:23N 38°43' W 027°03'0 0.0
2017-Nov-18 02:12N 38°43' W 027°03'0 0.0
2017-Nov-18 01:44N 38°43' W 027°03'0 0.0
2017-Nov-18 01:22N 38°43' W 027°03'0 0.0
2017-Nov-17 17:14N 38°43' W 027°03'0 0.0
2017-Nov-17 16:57N 38°43' W 027°03'0 0.0
2017-Nov-17 16:25N 38°43' W 027°03'0 0.0
2017-Nov-17 15:56N 38°43' W 027°03'0 0.0
2017-Nov-17 15:29N 38°43' W 027°03'0 0.0
2017-Nov-17 15:00N 38°43' W 027°03'0 0.0
2017-Nov-17 14:30N 38°43' W 027°03'0 0.0
2017-Nov-17 13:58N 38°43' W 027°03'0 0.0
2017-Nov-17 13:29N 38°43' W 027°03'0 0.0
2017-Nov-17 13:00N 38°43' W 027°03'0 0.0
2017-Nov-17 12:26N 38°43' W 027°03'0 0.0
2017-Nov-17 11:56N 38°43' W 027°03'0 0.0
2017-Nov-17 11:28N 38°43' W 027°03'0 0.0
2017-Nov-17 10:52N 38°43' W 027°03'0 0.0
2017-Nov-17 10:21N 38°43' W 027°03'0 0.0
2017-Nov-17 10:00N 38°43' W 027°03'0 0.0
2017-Nov-17 09:26N 38°43' W 027°03'0 0.0
2017-Nov-17 09:00N 38°43' W 027°03'0 0.0
2017-Nov-17 08:25N 38°43' W 027°03'0 0.0
2017-Nov-17 07:43N 38°43' W 027°03'0 0.0
2017-Nov-17 07:30N 38°43' W 027°03'0 0.0
2017-Nov-17 07:00N 38°43' W 027°03'0 0.0
2017-Nov-17 06:18N 38°43' W 027°03'0 0.0
2017-Nov-17 05:58N 38°43' W 027°03'0 0.0
2017-Nov-17 05:30N 38°43' W 027°03'0 0.0
2017-Nov-17 05:00N 38°43' W 027°03'0 0.0
2017-Nov-17 04:21N 38°43' W 027°03'0 0.0
2017-Nov-17 01:42N 38°43' W 027°03'0 0.0
2017-Nov-16 16:18N 38°43' W 027°03'0 0.0
2017-Nov-16 15:59N 38°43' W 027°03'0 0.0
2017-Nov-16 15:13N 38°43' W 027°03'0 0.0
2017-Nov-16 14:59N 38°43' W 027°03'0 0.0
2017-Nov-16 14:30N 38°43' W 027°03'0 0.0
2017-Nov-16 14:00N 38°43' W 027°03'0 0.0
2017-Nov-16 13:30N 38°43' W 027°03'0 0.0
2017-Nov-16 13:00N 38°43' W 027°03'0 0.0
2017-Nov-16 12:27N 38°43' W 027°03'0 0.0
2017-Nov-15 17:13N 38°43' W 027°03'0 0.0
2017-Nov-15 16:55N 38°43' W 027°03'0 0.0
2017-Nov-15 16:30N 38°43' W 027°03'0 0.0
2017-Nov-15 16:00N 38°43' W 027°03'0 0.0
2017-Nov-15 15:30N 38°43' W 027°03'0 0.0
2017-Nov-15 15:00N 38°43' W 027°03'0 0.0
2017-Nov-15 14:30N 38°43' W 027°03'0 0.0
2017-Nov-15 14:01N 38°43' W 027°03'0 0.0
2017-Nov-15 13:30N 38°43' W 027°03'0 0.0
2017-Nov-15 13:01N 38°43' W 027°03'0 0.0
2017-Nov-15 12:30N 38°43' W 027°03'0 0.0
2017-Nov-15 12:00N 38°43' W 027°03'0 0.0
2017-Nov-15 11:30N 38°43' W 027°03'0 0.0
2017-Nov-15 11:00N 38°43' W 027°03'0 0.0
2017-Nov-15 10:29N 38°43' W 027°03'0 0.0
2017-Nov-15 10:00N 38°43' W 027°03'0 0.0
2017-Nov-15 09:30N 38°43' W 027°03'0 0.0
2017-Nov-15 08:59N 38°43' W 027°03'0 0.0
2017-Nov-15 08:30N 38°43' W 027°03'0 0.0
2017-Nov-15 07:59N 38°43' W 027°03'0 0.0
2017-Nov-15 07:30N 38°43' W 027°03'0 0.0
2017-Nov-15 07:00N 38°43' W 027°03'0 0.0
2017-Nov-15 06:30N 38°43' W 027°03'7 0.9
2017-Nov-14 22:41N 38°36' W 027°05'2 7.5
2017-Nov-14 22:28N 38°35' W 027°07'4 8.0
2017-Nov-14 22:00N 38°35' W 027°11'4 7.9
2017-Nov-14 21:30N 38°34' W 027°16'4 8.1
2017-Nov-14 20:59N 38°33' W 027°22'4 8.5
2017-Nov-14 20:30N 38°33' W 027°27'4 8.3
2017-Nov-14 20:00N 38°32' W 027°32'4 8.4
2017-Nov-14 19:30N 38°31' W 027°37'4 8.3
2017-Nov-14 19:00N 38°30' W 027°43'4 8.1
2017-Nov-14 18:30N 38°30' W 027°48'4 7.8
2017-Nov-14 18:00N 38°31' W 027°53'4 7.8
2017-Nov-14 17:30N 38°32' W 027°57'4 7.9
2017-Nov-14 17:01N 38°33' W 028°02'4 8.2
2017-Nov-14 16:31N 38°35' W 028°07'4 8.1
2017-Nov-14 16:00N 38°38' W 028°11'3 6.6
2017-Nov-14 15:30N 38°41' W 028°12'0 0.0
2017-Nov-14 15:00N 38°41' W 028°12'0 0.0
2017-Nov-14 14:30N 38°41' W 028°12'0 0.0
2017-Nov-14 14:00N 38°41' W 028°12'0 0.0
2017-Nov-14 13:30N 38°41' W 028°12'0 0.0
2017-Nov-14 13:00N 38°41' W 028°12'0 0.0
2017-Nov-14 12:30N 38°41' W 028°12'0 0.0
2017-Nov-14 12:00N 38°41' W 028°12'0 0.0
2017-Nov-14 11:30N 38°41' W 028°12'0 0.0
2017-Nov-14 11:00N 38°41' W 028°12'0 0.0
2017-Nov-14 10:30N 38°41' W 028°12'0 0.0
2017-Nov-14 10:00N 38°41' W 028°12'0 0.0
2017-Nov-14 09:30N 38°41' W 028°12'0 0.0
2017-Nov-14 09:00N 38°41' W 028°12'0 0.0
2017-Nov-14 08:30N 38°41' W 028°12'0 0.9
2017-Nov-14 08:00N 38°40' W 028°12'4 8.8
2017-Nov-14 07:30N 38°37' W 028°08'5 9.6
2017-Nov-14 07:00N 38°35' W 028°03'5 9.5
2017-Nov-14 06:31N 38°33' W 027°57'5 9.3
2017-Nov-14 06:00N 38°31' W 027°52'4 8.7
2017-Nov-14 05:30N 38°31' W 027°47'4 8.7
2017-Nov-14 05:00N 38°32' W 027°41'4 8.6
2017-Nov-14 04:30N 38°32' W 027°36'4 8.6
2017-Nov-14 04:00N 38°33' W 027°30'5 9.0
2017-Nov-14 03:30N 38°34' W 027°25'5 9.5
2017-Nov-14 02:58N 38°35' W 027°18'4 9.4
2017-Nov-14 02:30N 38°36' W 027°13'11 7.0
2017-Nov-14 00:57N 38°42' W 027°01'2 0.1
2017-Nov-13 02:00N 38°43' W 027°03'0 0.0
2017-Nov-13 01:30N 38°43' W 027°03'0 0.0
2017-Nov-13 00:58N 38°43' W 027°03'0 0.0
2017-Nov-13 00:25N 38°43' W 027°03'0 0.0
2017-Nov-12 23:59N 38°43' W 027°03'0 0.0
2017-Nov-12 23:21N 38°43' W 027°03'0 0.0
2017-Nov-12 22:59N 38°43' W 027°03'0 0.0
2017-Nov-12 22:30N 38°43' W 027°03'0 0.0
2017-Nov-12 21:55N 38°43' W 027°03'0 0.0
2017-Nov-12 21:29N 38°43' W 027°03'0 0.0
2017-Nov-12 20:59N 38°43' W 027°03'0 0.0
2017-Nov-12 20:19N 38°43' W 027°03'0 0.0
2017-Nov-12 20:01N 38°43' W 027°03'0 0.0
2017-Nov-12 19:29N 38°43' W 027°03'0 0.0
2017-Nov-12 19:00N 38°43' W 027°03'0 0.0
2017-Nov-12 18:30N 38°43' W 027°03'0 0.0
2017-Nov-12 18:00N 38°43' W 027°03'0 0.0
2017-Nov-12 17:30N 38°43' W 027°03'0 0.0
2017-Nov-12 17:00N 38°43' W 027°03'0 0.0
2017-Nov-12 16:30N 38°43' W 027°03'0 0.0
2017-Nov-12 15:59N 38°43' W 027°03'0 0.0
2017-Nov-12 15:30N 38°43' W 027°03'0 0.0
2017-Nov-12 15:00N 38°43' W 027°03'0 0.0
2017-Nov-12 13:29N 38°43' W 027°03'0 0.0
2017-Nov-12 12:58N 38°43' W 027°03'0 0.0
2017-Nov-12 12:30N 38°43' W 027°03'0 0.0
2017-Nov-12 11:32N 38°43' W 027°03'0 0.0
2017-Nov-12 11:30N 38°43' W 027°03'0 0.0
2017-Nov-12 10:57N 38°43' W 027°03'0 0.0
2017-Nov-12 08:57N 38°43' W 027°03'0 0.0
2017-Nov-12 07:52N 38°43' W 027°03'0 0.0
2017-Nov-12 07:30N 38°43' W 027°03'0 0.0
2017-Nov-12 06:58N 38°43' W 027°03'0 0.0
2017-Nov-12 06:30N 38°43' W 027°03'0 0.0
2017-Nov-12 05:33N 38°43' W 027°03'0 0.0
2017-Nov-12 05:30N 38°43' W 027°03'0 0.0
2017-Nov-12 04:06N 38°43' W 027°03'0 0.0
2017-Nov-12 03:56N 38°43' W 027°03'0 0.0
2017-Nov-12 03:30N 38°43' W 027°03'0 0.0
2017-Nov-12 01:35N 38°43' W 027°03'0 0.1
2017-Nov-12 01:30N 38°43' W 027°03'0 0.0
2017-Nov-12 00:51N 38°43' W 027°03'0 0.0
2017-Nov-12 00:29N 38°43' W 027°03'0 0.0
2017-Nov-11 23:55N 38°43' W 027°03'0 0.0
2017-Nov-11 23:22N 38°43' W 027°03'0 0.0
2017-Nov-11 22:54N 38°43' W 027°03'0 0.0
2017-Nov-11 22:20N 38°43' W 027°03'0 0.0
2017-Nov-11 22:00N 38°43' W 027°03'0 0.0
2017-Nov-11 21:30N 38°43' W 027°03'0 0.0
2017-Nov-11 20:51N 38°43' W 027°03'0 0.0
2017-Nov-11 20:21N 38°43' W 027°03'0 0.0
2017-Nov-11 20:00N 38°43' W 027°03'0 0.0
2017-Nov-11 19:15N 38°43' W 027°03'0 0.0
2017-Nov-11 18:46N 38°43' W 027°03'0 0.0
2017-Nov-11 18:05N 38°43' W 027°03'0 0.0
2017-Nov-11 17:49N 38°43' W 027°03'0 0.0
2017-Nov-11 17:28N 38°43' W 027°03'0 0.0
2017-Nov-11 16:46N 38°43' W 027°03'0 0.0
2017-Nov-11 16:26N 38°43' W 027°03'0 0.0
2017-Nov-11 15:49N 38°43' W 027°03'0 0.0
2017-Nov-11 15:30N 38°43' W 027°03'0 0.0
2017-Nov-11 15:00N 38°43' W 027°03'0 0.0
2017-Nov-11 14:30N 38°43' W 027°03'0 0.0
2017-Nov-11 14:00N 38°43' W 027°03'0 0.0
2017-Nov-11 13:29N 38°43' W 027°03'0 0.0
2017-Nov-11 13:00N 38°43' W 027°03'0 0.0
2017-Nov-11 12:30N 38°43' W 027°03'0 0.0
2017-Nov-11 12:00N 38°43' W 027°03'0 0.0
2017-Nov-11 11:30N 38°43' W 027°03'0 0.0
2017-Nov-11 10:58N 38°43' W 027°03'0 0.0
2017-Nov-11 10:04N 38°43' W 027°03'0 0.0
2017-Nov-11 10:00N 38°43' W 027°03'0 0.0
2017-Nov-11 09:28N 38°43' W 027°03'0 0.0
2017-Nov-11 08:59N 38°43' W 027°03'0 0.0
2017-Nov-11 08:30N 38°43' W 027°03'0 0.0
2017-Nov-11 07:59N 38°43' W 027°03'0 0.0
2017-Nov-11 07:30N 38°43' W 027°03'0 0.0
2017-Nov-11 07:01N 38°43' W 027°03'0 0.0
2017-Nov-11 06:01N 38°43' W 027°03'0 0.0
2017-Nov-11 05:59N 38°43' W 027°03'0 0.0
2017-Nov-11 05:21N 38°43' W 027°03'0 0.0
2017-Nov-11 04:53N 38°43' W 027°03'0 0.0
2017-Nov-11 04:29N 38°43' W 027°03'0 0.0
2017-Nov-11 04:00N 38°43' W 027°03'0 0.0
2017-Nov-11 03:30N 38°43' W 027°03'0 0.0
2017-Nov-11 03:00N 38°43' W 027°03'0 0.0
2017-Nov-11 02:30N 38°43' W 027°03'0 0.0
2017-Nov-11 02:01N 38°43' W 027°03'0 0.0
2017-Nov-11 01:30N 38°43' W 027°03'0 0.0
2017-Nov-11 01:00N 38°43' W 027°03'0 0.0
2017-Nov-11 00:30N 38°43' W 027°03'0 0.0
2017-Nov-11 00:00N 38°43' W 027°03'0 0.0
2017-Nov-10 23:30N 38°43' W 027°03'0 0.0
2017-Nov-10 22:59N 38°43' W 027°03'0 0.0
2017-Nov-10 22:30N 38°43' W 027°03'0 0.0
2017-Nov-10 21:54N 38°43' W 027°03'0 0.0
2017-Nov-10 21:24N 38°43' W 027°03'0 0.0
2017-Nov-10 20:48N 38°43' W 027°03'0 0.0
2017-Nov-10 20:23N 38°43' W 027°03'0 0.0
2017-Nov-10 19:55N 38°43' W 027°03'0 0.0
2017-Nov-10 19:20N 38°43' W 027°03'0 0.0
2017-Nov-10 18:59N 38°43' W 027°03'0 0.0
2017-Nov-10 18:30N 38°43' W 027°03'0 0.0
2017-Nov-10 18:00N 38°43' W 027°03'0 0.0
2017-Nov-10 17:30N 38°43' W 027°03'0 0.0
2017-Nov-10 16:58N 38°43' W 027°03'0 0.0
2017-Nov-10 16:30N 38°43' W 027°03'0 0.0
2017-Nov-10 15:59N 38°43' W 027°03'0 0.0
2017-Nov-10 15:31N 38°43' W 027°03'0 0.0
2017-Nov-10 15:00N 38°43' W 027°03'0 0.0
2017-Nov-10 14:30N 38°43' W 027°03'0 0.0
2017-Nov-10 14:00N 38°43' W 027°03'0 0.0
2017-Nov-10 13:30N 38°43' W 027°03'0 0.0
2017-Nov-10 13:00N 38°43' W 027°03'0 0.0
2017-Nov-10 12:30N 38°43' W 027°03'0 0.0
2017-Nov-10 12:00N 38°43' W 027°03'0 0.0
2017-Nov-10 11:30N 38°43' W 027°03'0 0.0
2017-Nov-10 11:00N 38°43' W 027°03'0 0.0
2017-Nov-10 10:30N 38°43' W 027°03'0 0.0
2017-Nov-10 10:00N 38°43' W 027°03'0 0.0
2017-Nov-10 09:30N 38°43' W 027°03'0 0.0
2017-Nov-10 09:00N 38°43' W 027°03'0 0.0
2017-Nov-10 08:30N 38°43' W 027°03'0 0.0
2017-Nov-10 08:01N 38°43' W 027°03'0 0.0
2017-Nov-10 07:29N 38°43' W 027°03'0 0.0
2017-Nov-10 06:55N 38°43' W 027°03'0 0.0
2017-Nov-10 06:30N 38°43' W 027°03'0 0.0
2017-Nov-10 05:58N 38°43' W 027°03'0 0.0
2017-Nov-10 05:27N 38°43' W 027°03'0 0.0
2017-Nov-10 05:00N 38°43' W 027°03'0 0.0
2017-Nov-10 04:29N 38°43' W 027°03'0 0.0
2017-Nov-10 04:00N 38°43' W 027°03'0 0.0
2017-Nov-10 03:29N 38°43' W 027°03'0 0.0
2017-Nov-10 03:01N 38°43' W 027°03'0 0.0
2017-Nov-10 02:30N 38°43' W 027°03'0 0.0
2017-Nov-10 01:59N 38°43' W 027°03'0 0.0
2017-Nov-10 01:31N 38°43' W 027°03'0 0.0
2017-Nov-10 01:00N 38°43' W 027°03'0 0.0
2017-Nov-10 00:24N 38°43' W 027°03'0 0.0
2017-Nov-09 23:58N 38°43' W 027°03'0 0.0
2017-Nov-09 23:29N 38°43' W 027°03'0 0.0
2017-Nov-09 22:59N 38°43' W 027°03'0 0.0
2017-Nov-09 22:20N 38°43' W 027°03'0 0.0
2017-Nov-09 22:00N 38°43' W 027°03'0 0.0
2017-Nov-09 21:28N 38°43' W 027°03'0 0.0
2017-Nov-09 20:30N 38°43' W 027°03'0 0.0
2017-Nov-09 19:54N 38°43' W 027°03'0 0.0
2017-Nov-09 19:27N 38°43' W 027°03'0 0.0
2017-Nov-09 19:00N 38°43' W 027°03'0 0.0
2017-Nov-09 18:30N 38°43' W 027°03'0 0.0
2017-Nov-09 18:00N 38°43' W 027°03'0 0.0
2017-Nov-09 17:30N 38°43' W 027°03'0 0.0
2017-Nov-09 17:00N 38°43' W 027°03'0 0.0
2017-Nov-09 16:30N 38°43' W 027°03'0 0.0
2017-Nov-09 16:00N 38°43' W 027°03'0 0.0
2017-Nov-09 15:31N 38°43' W 027°03'0 0.0
2017-Nov-09 15:00N 38°43' W 027°03'0 0.0
2017-Nov-09 14:30N 38°43' W 027°03'0 0.0
2017-Nov-09 14:00N 38°43' W 027°03'0 0.0
2017-Nov-09 13:30N 38°43' W 027°03'0 0.0
2017-Nov-09 12:59N 38°43' W 027°03'0 0.0
2017-Nov-09 12:30N 38°43' W 027°03'0 0.0
2017-Nov-09 12:00N 38°43' W 027°03'0 0.0
2017-Nov-09 11:30N 38°43' W 027°03'0 0.0
2017-Nov-09 11:00N 38°43' W 027°03'0 0.0
2017-Nov-09 10:28N 38°43' W 027°03'0 0.0
2017-Nov-09 10:00N 38°43' W 027°03'0 0.0
2017-Nov-09 09:31N 38°43' W 027°03'0 0.0
2017-Nov-09 09:00N 38°43' W 027°03'0 0.0
2017-Nov-09 08:30N 38°43' W 027°03'0 0.0
2017-Nov-09 07:59N 38°43' W 027°03'0 0.0
2017-Nov-09 07:30N 38°43' W 027°03'0 0.0
2017-Nov-09 07:00N 38°43' W 027°03'0 0.0
2017-Nov-09 06:26N 38°43' W 027°03'0 0.0
2017-Nov-09 05:59N 38°43' W 027°03'0 0.0
2017-Nov-09 05:22N 38°43' W 027°03'0 0.0
2017-Nov-09 05:00N 38°43' W 027°03'0 0.0
2017-Nov-09 04:29N 38°43' W 027°03'0 0.0
2017-Nov-09 04:00N 38°43' W 027°03'0 0.0
2017-Nov-09 03:30N 38°43' W 027°03'0 0.0
2017-Nov-09 02:59N 38°43' W 027°03'0 0.0
2017-Nov-09 02:30N 38°43' W 027°03'0 0.0
2017-Nov-09 02:00N 38°43' W 027°03'0 0.0
2017-Nov-09 01:30N 38°43' W 027°03'0 0.0
2017-Nov-09 01:01N 38°43' W 027°03'0 0.0
2017-Nov-09 00:30N 38°43' W 027°03'0 0.0
2017-Nov-09 00:00N 38°43' W 027°03'0 0.0
2017-Nov-08 23:30N 38°43' W 027°03'0 0.0
2017-Nov-08 23:00N 38°43' W 027°03'0 0.0
2017-Nov-08 22:29N 38°43' W 027°03'0 0.0
2017-Nov-08 22:00N 38°43' W 027°03'0 0.0
2017-Nov-08 21:30N 38°43' W 027°03'0 0.0
2017-Nov-08 21:00N 38°43' W 027°03'0 0.0
2017-Nov-08 20:30N 38°43' W 027°03'0 0.0
2017-Nov-08 20:00N 38°43' W 027°03'0 0.0
2017-Nov-08 19:30N 38°43' W 027°03'0 0.0
2017-Nov-08 19:00N 38°43' W 027°03'0 0.0
2017-Nov-08 18:30N 38°43' W 027°03'0 0.0
2017-Nov-08 18:00N 38°43' W 027°03'0 0.0
2017-Nov-08 17:30N 38°43' W 027°03'0 0.0
2017-Nov-08 17:00N 38°43' W 027°03'0 0.0
2017-Nov-08 16:30N 38°43' W 027°03'0 0.0
2017-Nov-08 16:00N 38°43' W 027°03'0 0.0
2017-Nov-08 15:31N 38°43' W 027°03'0 0.0
2017-Nov-08 15:00N 38°43' W 027°03'0 0.0
2017-Nov-08 14:30N 38°43' W 027°03'0 0.0
2017-Nov-08 14:00N 38°43' W 027°03'0 0.0
2017-Nov-08 13:31N 38°43' W 027°03'0 0.0
2017-Nov-08 13:00N 38°43' W 027°03'0 0.0
2017-Nov-08 12:30N 38°43' W 027°03'0 0.0
2017-Nov-08 12:00N 38°43' W 027°03'0 0.0
2017-Nov-08 11:30N 38°43' W 027°03'0 0.0
2017-Nov-08 11:00N 38°43' W 027°03'0 0.0
2017-Nov-08 10:30N 38°43' W 027°03'0 0.0
2017-Nov-08 10:00N 38°43' W 027°03'0 0.0
2017-Nov-08 09:30N 38°43' W 027°03'0 0.0
2017-Nov-08 09:00N 38°43' W 027°03'0 0.0
2017-Nov-08 08:30N 38°43' W 027°03'0 0.0
2017-Nov-08 08:01N 38°43' W 027°03'0 0.0
2017-Nov-08 07:31N 38°43' W 027°03'0 0.0
2017-Nov-08 06:59N 38°43' W 027°03'0 0.0
2017-Nov-08 06:30N 38°43' W 027°03'0 0.0
2017-Nov-08 06:01N 38°43' W 027°03'0 0.0
2017-Nov-08 05:30N 38°43' W 027°03'0 0.0
2017-Nov-08 05:00N 38°43' W 027°03'0 0.0
2017-Nov-08 04:30N 38°43' W 027°03'  

Dump ship's entire track history